Terminal Aerodrome Forecast
Issued by NWS Sioux Falls, SD

Home | Current Version | Previous Version | Text Only | Print | Product List | Glossary Off
Versions: 1 2 3 4 5 6 7 8 9 10 11 12 13 14 15 16

660
FTUS43 KFSD 252011 AAA
TAFFSD
TAF AMD
KFSD 252011Z 2520/2618 02012KT 5SM RA OVC009
     FM252130 02012KT P6SM -RA OVC010
     FM260000 01014G23KT 6SM -RA OVC010
     FM260300 36013G21KT 5SM -RA OVC008
     FM260500 35014G22KT P6SM VCSH OVC008
     FM261200 34015KT P6SM OVC008
     FM261500 34017G25KT P6SM OVC010=

USA.gov is the U.S. government's official web portal to all federal, state and local government web resources and services.